sensor_id;sensor_type;location;lat;lon;timestamp;temperature;humidity
20744;DHT22;56303;52.160;-0.428;2023-12-07T00:02:04;3.90;99.90
20744;DHT22;56303;52.160;-0.428;2023-12-07T00:04:31;4.00;99.90
20744;DHT22;56303;52.160;-0.428;2023-12-07T00:06:58;4.00;99.90
20744;DHT22;56303;52.160;-0.428;2023-12-07T00:09:26;4.40;99.90
20744;DHT22;56303;52.160;-0.428;2023-12-07T00:11:53;4.40;99.90
20744;DHT22;56303;52.160;-0.428;2023-12-07T00:14:20;4.40;99.90
20744;DHT22;56303;52.160;-0.428;2023-12-07T00:16:47;4.70;99.90
20744;DHT22;56303;52.160;-0.428;2023-12-07T00:19:13;4.80;99.90
20744;DHT22;56303;52.160;-0.428;2023-12-07T00:21:40;4.80;99.90
20744;DHT22;56303;52.160;-0.428;2023-12-07T00:24:07;4.90;99.90
20744;DHT22;56303;52.160;-0.428;2023-12-07T00:26:35;4.80;99.90
20744;DHT22;56303;52.160;-0.428;2023-12-07T00:29:02;4.70;99.90
20744;DHT22;56303;52.160;-0.428;2023-12-07T00:31:29;4.50;99.90
20744;DHT22;56303;52.160;-0.428;2023-12-07T00:33:56;4.50;99.90
20744;DHT22;56303;52.160;-0.428;2023-12-07T00:36:23;4.30;99.90
20744;DHT22;56303;52.160;-0.428;2023-12-07T00:38:50;4.20;99.90
20744;DHT22;56303;52.160;-0.428;2023-12-07T00:41:17;4.20;99.90
20744;DHT22;56303;52.160;-0.428;2023-12-07T00:43:44;4.20;99.90
20744;DHT22;56303;52.160;-0.428;2023-12-07T00:46:11;4.30;99.90
20744;DHT22;56303;52.160;-0.428;2023-12-07T00:48:38;4.30;99.90
20744;DHT22;56303;52.160;-0.428;2023-12-07T00:51:05;4.60;99.90
20744;DHT22;56303;52.160;-0.428;2023-12-07T00:53:33;4.30;99.90
20744;DHT22;56303;52.160;-0.428;2023-12-07T00:56:00;4.40;99.90
20744;DHT22;56303;52.160;-0.428;2023-12-07T00:58:27;4.50;99.90
20744;DHT22;56303;52.160;-0.428;2023-12-07T01:00:55;4.40;99.90
20744;DHT22;56303;52.160;-0.428;2023-12-07T01:03:22;4.50;99.90
20744;DHT22;56303;52.160;-0.428;2023-12-07T01:05:49;4.50;99.90
20744;DHT22;56303;52.160;-0.428;2023-12-07T01:08:16;4.50;99.90
20744;DHT22;56303;52.160;-0.428;2023-12-07T01:10:43;4.40;99.90
20744;DHT22;56303;52.160;-0.428;2023-12-07T01:13:10;4.40;99.90
20744;DHT22;56303;52.160;-0.428;2023-12-07T01:15:37;4.50;99.90
20744;DHT22;56303;52.160;-0.428;2023-12-07T01:18:04;4.50;99.90
20744;DHT22;56303;52.160;-0.428;2023-12-07T01:20:31;4.60;99.90
20744;DHT22;56303;52.160;-0.428;2023-12-07T01:22:58;4.60;99.90
20744;DHT22;56303;52.160;-0.428;2023-12-07T01:25:25;4.70;99.90
20744;DHT22;56303;52.160;-0.428;2023-12-07T01:27:52;4.70;99.90
20744;DHT22;56303;52.160;-0.428;2023-12-07T01:30:19;4.80;99.90
20744;DHT22;56303;52.160;-0.428;2023-12-07T01:32:46;4.90;99.90
20744;DHT22;56303;52.160;-0.428;2023-12-07T01:35:13;4.80;99.90
20744;DHT22;56303;52.160;-0.428;2023-12-07T01:37:40;4.90;99.90
20744;DHT22;56303;52.160;-0.428;2023-12-07T01:40:07;5.00;99.90
20744;DHT22;56303;52.160;-0.428;2023-12-07T01:42:37;5.30;99.90
20744;DHT22;56303;52.160;-0.428;2023-12-07T01:45:06;5.30;99.90
20744;DHT22;56303;52.160;-0.428;2023-12-07T01:47:35;5.30;99.90
20744;DHT22;56303;52.160;-0.428;2023-12-07T01:50:02;5.40;99.90
20744;DHT22;56303;52.160;-0.428;2023-12-07T01:52:35;5.20;99.90
20744;DHT22;56303;52.160;-0.428;2023-12-07T01:55:04;5.40;99.90
20744;DHT22;56303;52.160;-0.428;2023-12-07T01:57:33;5.50;99.90
20744;DHT22;56303;52.160;-0.428;2023-12-07T02:00:01;5.50;99.90
20744;DHT22;56303;52.160;-0.428;2023-12-07T02:02:28;5.50;99.90
20744;DHT22;56303;52.160;-0.428;2023-12-07T02:04:54;5.70;99.90
20744;DHT22;56303;52.160;-0.428;2023-12-07T02:07:23;6.20;99.90
20744;DHT22;56303;52.160;-0.428;2023-12-07T02:09:50;6.10;99.90
20744;DHT22;56303;52.160;-0.428;2023-12-07T02:12:17;5.40;99.90
20744;DHT22;56303;52.160;-0.428;2023-12-07T02:14:46;6.20;99.90
20744;DHT22;56303;52.160;-0.428;2023-12-07T02:17:27;6.40;99.90
20744;DHT22;56303;52.160;-0.428;2023-12-07T02:22:42;6.70;99.90
20744;DHT22;56303;52.160;-0.428;2023-12-07T02:25:10;6.50;99.90
20744;DHT22;56303;52.160;-0.428;2023-12-07T02:27:43;6.50;99.90
20744;DHT22;56303;52.160;-0.428;2023-12-07T02:30:14;6.40;99.90
20744;DHT22;56303;52.160;-0.428;2023-12-07T02:32:43;6.40;99.90
20744;DHT22;56303;52.160;-0.428;2023-12-07T02:35:12;6.80;99.90
20744;DHT22;56303;52.160;-0.428;2023-12-07T02:37:45;6.50;99.90
20744;DHT22;56303;52.160;-0.428;2023-12-07T02:40:19;6.40;99.90
20744;DHT22;56303;52.160;-0.428;2023-12-07T02:42:47;6.10;99.90
20744;DHT22;56303;52.160;-0.428;2023-12-07T02:45:15;6.10;99.90
20744;DHT22;56303;52.160;-0.428;2023-12-07T02:47:42;6.00;99.90
20744;DHT22;56303;52.160;-0.428;2023-12-07T02:50:12;6.10;99.90
20744;DHT22;56303;52.160;-0.428;2023-12-07T02:52:40;6.20;99.90
20744;DHT22;56303;52.160;-0.428;2023-12-07T02:55:07;6.10;99.90
20744;DHT22;56303;52.160;-0.428;2023-12-07T02:57:38;6.10;99.90
20744;DHT22;56303;52.160;-0.428;2023-12-07T03:00:06;6.10;99.90
20744;DHT22;56303;52.160;-0.428;2023-12-07T03:02:34;6.00;99.90
20744;DHT22;56303;52.160;-0.428;2023-12-07T03:05:02;6.10;99.90
20744;DHT22;56303;52.160;-0.428;2023-12-07T03:07:29;6.30;99.90
20744;DHT22;56303;52.160;-0.428;2023-12-07T03:09:56;6.40;99.90
20744;DHT22;56303;52.160;-0.428;2023-12-07T03:12:24;6.50;99.90
20744;DHT22;56303;52.160;-0.428;2023-12-07T03:14:51;6.40;99.90
20744;DHT22;56303;52.160;-0.428;2023-12-07T03:17:18;6.50;99.90
20744;DHT22;56303;52.160;-0.428;2023-12-07T03:19:45;6.20;99.90
20744;DHT22;56303;52.160;-0.428;2023-12-07T03:22:12;6.20;99.90
20744;DHT22;56303;52.160;-0.428;2023-12-07T03:24:45;6.30;99.90
20744;DHT22;56303;52.160;-0.428;2023-12-07T03:27:13;6.10;99.90
20744;DHT22;56303;52.160;-0.428;2023-12-07T03:29:40;6.50;99.90
20744;DHT22;56303;52.160;-0.428;2023-12-07T03:32:07;6.40;99.90
20744;DHT22;56303;52.160;-0.428;2023-12-07T03:34:34;6.70;99.90
20744;DHT22;56303;52.160;-0.428;2023-12-07T03:37:01;6.10;99.90
20744;DHT22;56303;52.160;-0.428;2023-12-07T03:39:30;5.90;99.90
20744;DHT22;56303;52.160;-0.428;2023-12-07T03:42:00;6.30;99.90
20744;DHT22;56303;52.160;-0.428;2023-12-07T03:44:26;6.00;99.90
20744;DHT22;56303;52.160;-0.428;2023-12-07T03:46:54;5.80;99.90
20744;DHT22;56303;52.160;-0.428;2023-12-07T03:49:21;5.90;99.90
20744;DHT22;56303;52.160;-0.428;2023-12-07T03:51:48;5.90;99.90
20744;DHT22;56303;52.160;-0.428;2023-12-07T03:54:15;5.90;99.90
20744;DHT22;56303;52.160;-0.428;2023-12-07T03:56:42;5.80;99.90
20744;DHT22;56303;52.160;-0.428;2023-12-07T03:59:09;5.80;99.90
20744;DHT22;56303;52.160;-0.428;2023-12-07T04:01:36;5.80;99.90
20744;DHT22;56303;52.160;-0.428;2023-12-07T04:04:04;5.80;99.90
20744;DHT22;56303;52.160;-0.428;2023-12-07T04:06:32;6.10;99.90
20744;DHT22;56303;52.160;-0.428;2023-12-07T04:08:59;6.10;99.90
20744;DHT22;56303;52.160;-0.428;2023-12-07T04:11:26;6.30;99.90
20744;DHT22;56303;52.160;-0.428;2023-12-07T04:13:53;6.40;99.90
20744;DHT22;56303;52.160;-0.428;2023-12-07T04:16:19;6.60;99.90
20744;DHT22;56303;52.160;-0.428;2023-12-07T04:18:46;6.70;99.90
20744;DHT22;56303;52.160;-0.428;2023-12-07T04:21:13;6.80;99.90
20744;DHT22;56303;52.160;-0.428;2023-12-07T04:23:40;7.00;99.90
20744;DHT22;56303;52.160;-0.428;2023-12-07T04:26:07;6.90;99.90
20744;DHT22;56303;52.160;-0.428;2023-12-07T04:28:34;7.00;99.90
20744;DHT22;56303;52.160;-0.428;2023-12-07T04:31:02;7.20;99.90
20744;DHT22;56303;52.160;-0.428;2023-12-07T04:33:29;7.20;99.90
20744;DHT22;56303;52.160;-0.428;2023-12-07T04:35:56;7.20;99.90
20744;DHT22;56303;52.160;-0.428;2023-12-07T04:38:23;6.70;99.90
20744;DHT22;56303;52.160;-0.428;2023-12-07T04:40:50;6.50;99.90
20744;DHT22;56303;52.160;-0.428;2023-12-07T04:43:17;6.50;99.90
20744;DHT22;56303;52.160;-0.428;2023-12-07T04:45:44;6.70;99.90
20744;DHT22;56303;52.160;-0.428;2023-12-07T04:48:11;6.60;99.90
20744;DHT22;56303;52.160;-0.428;2023-12-07T04:50:38;6.80;99.90
20744;DHT22;56303;52.160;-0.428;2023-12-07T04:53:05;6.70;99.90
20744;DHT22;56303;52.160;-0.428;2023-12-07T04:55:32;6.60;99.90
20744;DHT22;56303;52.160;-0.428;2023-12-07T04:57:59;6.40;99.90
20744;DHT22;56303;52.160;-0.428;2023-12-07T05:00:26;6.20;99.90
20744;DHT22;56303;52.160;-0.428;2023-12-07T05:02:54;6.20;99.90
20744;DHT22;56303;52.160;-0.428;2023-12-07T05:05:21;6.20;99.90
20744;DHT22;56303;52.160;-0.428;2023-12-07T05:07:47;6.30;99.90
20744;DHT22;56303;52.160;-0.428;2023-12-07T05:10:14;6.10;99.90
20744;DHT22;56303;52.160;-0.428;2023-12-07T05:12:41;6.20;99.90
20744;DHT22;56303;52.160;-0.428;2023-12-07T05:15:08;6.20;99.90
20744;DHT22;56303;52.160;-0.428;2023-12-07T05:17:35;6.20;99.90
20744;DHT22;56303;52.160;-0.428;2023-12-07T05:20:03;5.90;99.90
20744;DHT22;56303;52.160;-0.428;2023-12-07T05:22:31;6.10;99.90
20744;DHT22;56303;52.160;-0.428;2023-12-07T05:24:58;6.00;99.90
20744;DHT22;56303;52.160;-0.428;2023-12-07T05:27:25;5.90;99.90
20744;DHT22;56303;52.160;-0.428;2023-12-07T05:29:52;6.10;99.90
20744;DHT22;56303;52.160;-0.428;2023-12-07T05:32:19;6.50;99.90
20744;DHT22;56303;52.160;-0.428;2023-12-07T05:34:46;5.90;99.90
20744;DHT22;56303;52.160;-0.428;2023-12-07T05:37:13;6.10;99.90
20744;DHT22;56303;52.160;-0.428;2023-12-07T05:39:40;6.10;99.90
20744;DHT22;56303;52.160;-0.428;2023-12-07T05:42:07;6.40;99.90
20744;DHT22;56303;52.160;-0.428;2023-12-07T05:44:34;6.60;99.90
20744;DHT22;56303;52.160;-0.428;2023-12-07T05:47:01;6.50;99.90
20744;DHT22;56303;52.160;-0.428;2023-12-07T05:49:27;6.50;99.90
20744;DHT22;56303;52.160;-0.428;2023-12-07T05:51:54;6.50;99.90
20744;DHT22;56303;52.160;-0.428;2023-12-07T05:54:21;6.50;99.90
20744;DHT22;56303;52.160;-0.428;2023-12-07T05:56:49;6.70;99.90
20744;DHT22;56303;52.160;-0.428;2023-12-07T05:59:16;6.40;99.90
20744;DHT22;56303;52.160;-0.428;2023-12-07T06:01:44;6.80;99.90
20744;DHT22;56303;52.160;-0.428;2023-12-07T06:04:11;6.60;99.90
20744;DHT22;56303;52.160;-0.428;2023-12-07T06:06:39;6.80;99.90
20744;DHT22;56303;52.160;-0.428;2023-12-07T06:09:06;6.90;99.90
20744;DHT22;56303;52.160;-0.428;2023-12-07T06:11:34;7.10;99.90
20744;DHT22;56303;52.160;-0.428;2023-12-07T06:14:02;6.50;99.90
20744;DHT22;56303;52.160;-0.428;2023-12-07T06:16:30;6.90;99.90
20744;DHT22;56303;52.160;-0.428;2023-12-07T06:18:57;7.00;99.90
20744;DHT22;56303;52.160;-0.428;2023-12-07T06:21:24;6.90;99.90
20744;DHT22;56303;52.160;-0.428;2023-12-07T06:23:52;6.80;99.90
20744;DHT22;56303;52.160;-0.428;2023-12-07T06:26:19;6.80;99.90
20744;DHT22;56303;52.160;-0.428;2023-12-07T06:28:46;7.00;99.90
20744;DHT22;56303;52.160;-0.428;2023-12-07T06:31:13;7.00;99.90
20744;DHT22;56303;52.160;-0.428;2023-12-07T06:33:47;7.20;99.90
20744;DHT22;56303;52.160;-0.428;2023-12-07T06:36:23;7.20;99.90
20744;DHT22;56303;52.160;-0.428;2023-12-07T06:38:51;7.20;99.90
20744;DHT22;56303;52.160;-0.428;2023-12-07T06:41:19;7.10;99.90
20744;DHT22;56303;52.160;-0.428;2023-12-07T06:43:45;7.30;99.90
20744;DHT22;56303;52.160;-0.428;2023-12-07T06:46:13;7.00;99.90
20744;DHT22;56303;52.160;-0.428;2023-12-07T06:48:41;6.90;99.90
20744;DHT22;56303;52.160;-0.428;2023-12-07T06:51:08;6.80;99.90
20744;DHT22;56303;52.160;-0.428;2023-12-07T06:53:35;7.10;99.90
20744;DHT22;56303;52.160;-0.428;2023-12-07T06:56:02;7.10;99.90
20744;DHT22;56303;52.160;-0.428;2023-12-07T06:58:29;7.00;99.90
20744;DHT22;56303;52.160;-0.428;2023-12-07T07:00:56;6.90;99.90
20744;DHT22;56303;52.160;-0.428;2023-12-07T07:03:24;7.10;99.90
20744;DHT22;56303;52.160;-0.428;2023-12-07T07:05:51;7.30;99.90
20744;DHT22;56303;52.160;-0.428;2023-12-07T07:08:19;7.30;99.90
20744;DHT22;56303;52.160;-0.428;2023-12-07T07:10:46;7.30;99.90
20744;DHT22;56303;52.160;-0.428;2023-12-07T07:13:16;7.30;99.90
20744;DHT22;56303;52.160;-0.428;2023-12-07T07:15:44;7.00;99.90
20744;DHT22;56303;52.160;-0.428;2023-12-07T07:18:12;6.20;99.90
20744;DHT22;56303;52.160;-0.428;2023-12-07T07:20:39;6.90;99.90
20744;DHT22;56303;52.160;-0.428;2023-12-07T07:23:06;7.10;99.90
20744;DHT22;56303;52.160;-0.428;2023-12-07T07:25:35;7.20;99.90
20744;DHT22;56303;52.160;-0.428;2023-12-07T07:28:02;7.40;99.90
20744;DHT22;56303;52.160;-0.428;2023-12-07T07:30:30;7.40;99.90
20744;DHT22;56303;52.160;-0.428;2023-12-07T07:32:57;7.40;99.90
20744;DHT22;56303;52.160;-0.428;2023-12-07T07:35:24;7.50;99.90
20744;DHT22;56303;52.160;-0.428;2023-12-07T07:37:51;7.50;99.90
20744;DHT22;56303;52.160;-0.428;2023-12-07T07:40:18;8.20;99.90
20744;DHT22;56303;52.160;-0.428;2023-12-07T07:42:45;7.40;99.90
20744;DHT22;56303;52.160;-0.428;2023-12-07T07:45:13;7.20;99.90
20744;DHT22;56303;52.160;-0.428;2023-12-07T07:47:41;7.20;99.90
20744;DHT22;56303;52.160;-0.428;2023-12-07T07:50:08;8.10;99.90
20744;DHT22;56303;52.160;-0.428;2023-12-07T07:52:37;7.50;99.90
20744;DHT22;56303;52.160;-0.428;2023-12-07T07:55:04;7.80;99.90
20744;DHT22;56303;52.160;-0.428;2023-12-07T07:57:31;7.70;99.90
20744;DHT22;56303;52.160;-0.428;2023-12-07T07:59:59;7.60;99.90
20744;DHT22;56303;52.160;-0.428;2023-12-07T08:02:26;7.50;99.90
20744;DHT22;56303;52.160;-0.428;2023-12-07T08:04:53;7.50;99.90
20744;DHT22;56303;52.160;-0.428;2023-12-07T08:07:20;7.30;99.90
20744;DHT22;56303;52.160;-0.428;2023-12-07T08:09:48;7.40;99.90
20744;DHT22;56303;52.160;-0.428;2023-12-07T08:12:15;7.40;99.90
20744;DHT22;56303;52.160;-0.428;2023-12-07T08:14:42;7.60;99.90
20744;DHT22;56303;52.160;-0.428;2023-12-07T08:17:11;7.70;99.90
20744;DHT22;56303;52.160;-0.428;2023-12-07T08:19:38;8.10;99.90
20744;DHT22;56303;52.160;-0.428;2023-12-07T08:22:05;7.70;99.90
20744;DHT22;56303;52.160;-0.428;2023-12-07T08:24:32;7.60;99.90
20744;DHT22;56303;52.160;-0.428;2023-12-07T08:27:00;7.60;99.90
20744;DHT22;56303;52.160;-0.428;2023-12-07T08:29:27;7.70;99.90
20744;DHT22;56303;52.160;-0.428;2023-12-07T08:31:54;7.70;99.90
20744;DHT22;56303;52.160;-0.428;2023-12-07T08:34:21;7.80;99.90
20744;DHT22;56303;52.160;-0.428;2023-12-07T08:36:50;7.70;99.90
20744;DHT22;56303;52.160;-0.428;2023-12-07T08:39:16;7.60;99.90
20744;DHT22;56303;52.160;-0.428;2023-12-07T08:41:43;7.60;99.90
20744;DHT22;56303;52.160;-0.428;2023-12-07T08:44:10;7.70;99.90
20744;DHT22;56303;52.160;-0.428;2023-12-07T08:46:38;7.60;99.90
20744;DHT22;56303;52.160;-0.428;2023-12-07T08:49:05;7.60;99.90
20744;DHT22;56303;52.160;-0.428;2023-12-07T08:51:33;7.40;99.90
20744;DHT22;56303;52.160;-0.428;2023-12-07T08:54:01;7.60;99.90
20744;DHT22;56303;52.160;-0.428;2023-12-07T08:56:28;7.60;99.90
20744;DHT22;56303;52.160;-0.428;2023-12-07T08:58:55;8.10;99.90
20744;DHT22;56303;52.160;-0.428;2023-12-07T09:01:21;7.60;99.90
20744;DHT22;56303;52.160;-0.428;2023-12-07T09:03:59;7.60;99.90
20744;DHT22;56303;52.160;-0.428;2023-12-07T09:06:26;7.60;99.90
20744;DHT22;56303;52.160;-0.428;2023-12-07T09:08:55;7.40;99.90
20744;DHT22;56303;52.160;-0.428;2023-12-07T09:11:23;7.50;99.90
20744;DHT22;56303;52.160;-0.428;2023-12-07T09:13:50;7.50;99.90
20744;DHT22;56303;52.160;-0.428;2023-12-07T09:16:17;7.50;99.90
20744;DHT22;56303;52.160;-0.428;2023-12-07T09:18:44;6.90;99.90
20744;DHT22;56303;52.160;-0.428;2023-12-07T09:21:13;7.60;99.90
20744;DHT22;56303;52.160;-0.428;2023-12-07T09:23:41;7.50;99.90
20744;DHT22;56303;52.160;-0.428;2023-12-07T09:26:08;7.60;99.90
20744;DHT22;56303;52.160;-0.428;2023-12-07T09:28:35;7.30;99.90
20744;DHT22;56303;52.160;-0.428;2023-12-07T09:31:02;7.30;99.90
20744;DHT22;56303;52.160;-0.428;2023-12-07T09:33:29;7.40;99.90
20744;DHT22;56303;52.160;-0.428;2023-12-07T09:35:57;7.50;99.90
20744;DHT22;56303;52.160;-0.428;2023-12-07T09:38:24;7.50;99.90
20744;DHT22;56303;52.160;-0.428;2023-12-07T09:40:53;7.60;99.90
20744;DHT22;56303;52.160;-0.428;2023-12-07T09:43:21;7.50;99.90
20744;DHT22;56303;52.160;-0.428;2023-12-07T09:45:48;7.70;99.90
20744;DHT22;56303;52.160;-0.428;2023-12-07T09:48:17;7.90;99.90
20744;DHT22;56303;52.160;-0.428;2023-12-07T09:50:44;7.90;99.90
20744;DHT22;56303;52.160;-0.428;2023-12-07T09:53:11;8.10;99.90
20744;DHT22;56303;52.160;-0.428;2023-12-07T09:55:38;8.10;99.90
20744;DHT22;56303;52.160;-0.428;2023-12-07T09:58:06;8.30;99.90
20744;DHT22;56303;52.160;-0.428;2023-12-07T10:00:36;8.10;99.90
20744;DHT22;56303;52.160;-0.428;2023-12-07T10:03:03;7.80;99.90
20744;DHT22;56303;52.160;-0.428;2023-12-07T10:05:53;7.90;99.90
20744;DHT22;56303;52.160;-0.428;2023-12-07T10:08:32;8.00;99.90
20744;DHT22;56303;52.160;-0.428;2023-12-07T10:11:17;7.80;99.90
20744;DHT22;56303;52.160;-0.428;2023-12-07T10:13:45;8.00;99.90
20744;DHT22;56303;52.160;-0.428;2023-12-07T10:16:13;8.30;99.90
20744;DHT22;56303;52.160;-0.428;2023-12-07T10:18:44;8.40;99.90
20744;DHT22;56303;52.160;-0.428;2023-12-07T10:21:12;8.30;99.90
20744;DHT22;56303;52.160;-0.428;2023-12-07T10:23:42;8.30;99.90
20744;DHT22;56303;52.160;-0.428;2023-12-07T10:26:16;8.20;99.90
20744;DHT22;56303;52.160;-0.428;2023-12-07T10:28:49;8.10;99.90
20744;DHT22;56303;52.160;-0.428;2023-12-07T10:31:20;8.20;99.90
20744;DHT22;56303;52.160;-0.428;2023-12-07T10:33:49;7.90;99.90
20744;DHT22;56303;52.160;-0.428;2023-12-07T10:36:16;8.00;99.90
20744;DHT22;56303;52.160;-0.428;2023-12-07T10:38:43;8.20;99.90
20744;DHT22;56303;52.160;-0.428;2023-12-07T10:41:12;8.30;99.90
20744;DHT22;56303;52.160;-0.428;2023-12-07T10:43:43;8.30;99.90
20744;DHT22;56303;52.160;-0.428;2023-12-07T10:46:15;8.30;99.90
20744;DHT22;56303;52.160;-0.428;2023-12-07T10:48:45;8.30;99.90
20744;DHT22;56303;52.160;-0.428;2023-12-07T10:51:34;8.20;99.90
20744;DHT22;56303;52.160;-0.428;2023-12-07T10:54:04;8.40;99.90
20744;DHT22;56303;52.160;-0.428;2023-12-07T10:56:44;8.50;99.90
20744;DHT22;56303;52.160;-0.428;2023-12-07T10:59:12;7.50;99.90
20744;DHT22;56303;52.160;-0.428;2023-12-07T11:01:57;8.60;99.90
20744;DHT22;56303;52.160;-0.428;2023-12-07T11:04:25;8.40;99.90
20744;DHT22;56303;52.160;-0.428;2023-12-07T11:06:53;8.50;99.90
20744;DHT22;56303;52.160;-0.428;2023-12-07T11:09:28;8.00;99.90
20744;DHT22;56303;52.160;-0.428;2023-12-07T11:12:09;8.40;99.90
20744;DHT22;56303;52.160;-0.428;2023-12-07T11:14:38;8.40;99.90
20744;DHT22;56303;52.160;-0.428;2023-12-07T11:17:05;8.50;99.90
20744;DHT22;56303;52.160;-0.428;2023-12-07T11:22:06;8.50;99.90
20744;DHT22;56303;52.160;-0.428;2023-12-07T11:24:33;8.40;99.90
20744;DHT22;56303;52.160;-0.428;2023-12-07T11:27:00;8.50;99.90
20744;DHT22;56303;52.160;-0.428;2023-12-07T11:29:31;8.60;99.90
20744;DHT22;56303;52.160;-0.428;2023-12-07T11:32:02;8.40;99.90
20744;DHT22;56303;52.160;-0.428;2023-12-07T11:34:45;8.30;99.90
20744;DHT22;56303;52.160;-0.428;2023-12-07T11:37:15;8.30;99.90
20744;DHT22;56303;52.160;-0.428;2023-12-07T11:39:45;8.20;99.90
20744;DHT22;56303;52.160;-0.428;2023-12-07T11:42:15;8.20;99.90
20744;DHT22;56303;52.160;-0.428;2023-12-07T11:44:43;8.30;99.90
20744;DHT22;56303;52.160;-0.428;2023-12-07T11:47:18;8.40;99.90
20744;DHT22;56303;52.160;-0.428;2023-12-07T11:49:46;8.40;99.90
20744;DHT22;56303;52.160;-0.428;2023-12-07T11:52:20;8.70;99.90
20744;DHT22;56303;52.160;-0.428;2023-12-07T11:54:49;8.60;99.90
20744;DHT22;56303;52.160;-0.428;2023-12-07T11:57:17;8.50;99.90
20744;DHT22;56303;52.160;-0.428;2023-12-07T11:59:44;8.20;99.90
20744;DHT22;56303;52.160;-0.428;2023-12-07T12:02:12;8.50;99.90
20744;DHT22;56303;52.160;-0.428;2023-12-07T12:04:43;8.50;99.90
20744;DHT22;56303;52.160;-0.428;2023-12-07T12:07:10;8.70;99.90
20744;DHT22;56303;52.160;-0.428;2023-12-07T12:09:38;8.60;99.90
20744;DHT22;56303;52.160;-0.428;2023-12-07T12:12:05;8.60;99.90
20744;DHT22;56303;52.160;-0.428;2023-12-07T12:14:32;8.80;99.90
20744;DHT22;56303;52.160;-0.428;2023-12-07T12:17:00;8.90;99.90
20744;DHT22;56303;52.160;-0.428;2023-12-07T12:19:27;8.80;99.90
20744;DHT22;56303;52.160;-0.428;2023-12-07T12:22:03;8.90;99.90
20744;DHT22;56303;52.160;-0.428;2023-12-07T12:24:37;8.50;99.90
20744;DHT22;56303;52.160;-0.428;2023-12-07T12:27:05;8.60;99.90
20744;DHT22;56303;52.160;-0.428;2023-12-07T12:29:33;8.50;99.90
20744;DHT22;56303;52.160;-0.428;2023-12-07T12:32:02;8.60;99.90
20744;DHT22;56303;52.160;-0.428;2023-12-07T12:34:32;8.60;99.90
20744;DHT22;56303;52.160;-0.428;2023-12-07T12:36:59;8.40;99.90
20744;DHT22;56303;52.160;-0.428;2023-12-07T12:39:28;8.50;99.90
20744;DHT22;56303;52.160;-0.428;2023-12-07T12:42:01;8.60;99.90
20744;DHT22;56303;52.160;-0.428;2023-12-07T12:44:30;8.60;99.90
20744;DHT22;56303;52.160;-0.428;2023-12-07T12:47:07;8.90;99.90
20744;DHT22;56303;52.160;-0.428;2023-12-07T12:49:41;9.00;99.90
20744;DHT22;56303;52.160;-0.428;2023-12-07T12:52:14;9.20;99.90
20744;DHT22;56303;52.160;-0.428;2023-12-07T12:54:43;9.10;99.90
20744;DHT22;56303;52.160;-0.428;2023-12-07T12:57:10;8.90;99.90
20744;DHT22;56303;52.160;-0.428;2023-12-07T12:59:39;8.80;99.90
20744;DHT22;56303;52.160;-0.428;2023-12-07T13:02:06;9.40;99.90
20744;DHT22;56303;52.160;-0.428;2023-12-07T13:04:38;8.90;99.90
20744;DHT22;56303;52.160;-0.428;2023-12-07T13:07:09;8.80;99.90
20744;DHT22;56303;52.160;-0.428;2023-12-07T13:09:36;8.80;99.90
20744;DHT22;56303;52.160;-0.428;2023-12-07T13:12:03;8.60;99.90
20744;DHT22;56303;52.160;-0.428;2023-12-07T13:14:32;8.60;99.90
20744;DHT22;56303;52.160;-0.428;2023-12-07T13:17:05;8.60;99.90
20744;DHT22;56303;52.160;-0.428;2023-12-07T13:19:34;8.60;99.90
20744;DHT22;56303;52.160;-0.428;2023-12-07T13:22:02;8.50;99.90
20744;DHT22;56303;52.160;-0.428;2023-12-07T13:24:29;8.50;99.90
20744;DHT22;56303;52.160;-0.428;2023-12-07T13:26:57;8.50;99.90
20744;DHT22;56303;52.160;-0.428;2023-12-07T13:29:27;8.70;99.90
20744;DHT22;56303;52.160;-0.428;2023-12-07T13:32:03;8.70;99.90
20744;DHT22;56303;52.160;-0.428;2023-12-07T13:34:30;8.50;99.90
20744;DHT22;56303;52.160;-0.428;2023-12-07T13:36:57;8.60;99.90
20744;DHT22;56303;52.160;-0.428;2023-12-07T13:39:24;8.80;99.90
20744;DHT22;56303;52.160;-0.428;2023-12-07T13:41:58;8.80;99.90
20744;DHT22;56303;52.160;-0.428;2023-12-07T13:44:26;8.70;99.90
20744;DHT22;56303;52.160;-0.428;2023-12-07T13:46:55;8.80;99.90
20744;DHT22;56303;52.160;-0.428;2023-12-07T13:49:24;8.70;99.90
20744;DHT22;56303;52.160;-0.428;2023-12-07T13:52:02;8.50;99.90
20744;DHT22;56303;52.160;-0.428;2023-12-07T13:54:35;8.80;99.90
20744;DHT22;56303;52.160;-0.428;2023-12-07T13:57:20;8.90;99.90
20744;DHT22;56303;52.160;-0.428;2023-12-07T13:59:47;8.50;99.90
20744;DHT22;56303;52.160;-0.428;2023-12-07T14:02:14;8.50;99.90
20744;DHT22;56303;52.160;-0.428;2023-12-07T14:04:42;8.60;99.90
20744;DHT22;56303;52.160;-0.428;2023-12-07T14:07:14;8.50;99.90
20744;DHT22;56303;52.160;-0.428;2023-12-07T14:09:43;9.20;99.90
20744;DHT22;56303;52.160;-0.428;2023-12-07T14:12:23;8.40;99.90
20744;DHT22;56303;52.160;-0.428;2023-12-07T14:14:51;8.50;99.90
20744;DHT22;56303;52.160;-0.428;2023-12-07T14:17:18;8.40;99.90
20744;DHT22;56303;52.160;-0.428;2023-12-07T14:19:47;8.40;99.90
20744;DHT22;56303;52.160;-0.428;2023-12-07T14:22:16;8.30;99.90
20744;DHT22;56303;52.160;-0.428;2023-12-07T14:24:44;8.20;99.90
20744;DHT22;56303;52.160;-0.428;2023-12-07T14:27:12;8.10;99.90
20744;DHT22;56303;52.160;-0.428;2023-12-07T14:29:39;8.40;99.90
20744;DHT22;56303;52.160;-0.428;2023-12-07T14:32:06;8.20;99.90
20744;DHT22;56303;52.160;-0.428;2023-12-07T14:34:33;8.30;99.90
20744;DHT22;56303;52.160;-0.428;2023-12-07T14:37:03;8.20;99.90
20744;DHT22;56303;52.160;-0.428;2023-12-07T14:39:32;8.20;99.90
20744;DHT22;56303;52.160;-0.428;2023-12-07T14:42:00;8.20;99.90
20744;DHT22;56303;52.160;-0.428;2023-12-07T14:44:27;9.20;99.90
20744;DHT22;56303;52.160;-0.428;2023-12-07T14:46:56;8.10;99.90
20744;DHT22;56303;52.160;-0.428;2023-12-07T14:49:23;8.20;99.90
20744;DHT22;56303;52.160;-0.428;2023-12-07T14:51:53;8.20;99.90
20744;DHT22;56303;52.160;-0.428;2023-12-07T14:54:20;8.00;99.90
20744;DHT22;56303;52.160;-0.428;2023-12-07T14:56:54;7.70;99.90
20744;DHT22;56303;52.160;-0.428;2023-12-07T14:59:24;7.90;99.90
20744;DHT22;56303;52.160;-0.428;2023-12-07T15:01:51;8.10;99.90
20744;DHT22;56303;52.160;-0.428;2023-12-07T15:04:18;8.00;99.90
20744;DHT22;56303;52.160;-0.428;2023-12-07T15:06:59;8.10;99.90
20744;DHT22;56303;52.160;-0.428;2023-12-07T15:09:26;8.20;99.90
20744;DHT22;56303;52.160;-0.428;2023-12-07T15:11:53;8.30;99.90
20744;DHT22;56303;52.160;-0.428;2023-12-07T15:14:21;8.10;99.90
20744;DHT22;56303;52.160;-0.428;2023-12-07T15:17:03;8.10;99.90
20744;DHT22;56303;52.160;-0.428;2023-12-07T15:19:31;8.00;99.90
20744;DHT22;56303;52.160;-0.428;2023-12-07T15:21:59;8.30;99.90
20744;DHT22;56303;52.160;-0.428;2023-12-07T15:24:25;7.80;99.90
20744;DHT22;56303;52.160;-0.428;2023-12-07T15:27:04;7.70;99.90
20744;DHT22;56303;52.160;-0.428;2023-12-07T15:29:32;7.70;99.90
20744;DHT22;56303;52.160;-0.428;2023-12-07T15:32:02;7.70;99.90
20744;DHT22;56303;52.160;-0.428;2023-12-07T15:34:29;7.60;99.90
20744;DHT22;56303;52.160;-0.428;2023-12-07T15:37:06;7.80;99.90
20744;DHT22;56303;52.160;-0.428;2023-12-07T15:39:33;7.60;99.90
20744;DHT22;56303;52.160;-0.428;2023-12-07T15:42:00;7.70;99.90
20744;DHT22;56303;52.160;-0.428;2023-12-07T15:44:30;7.20;99.90